Time;durP1;ratioP1;P1;durP2;ratioP2;P2;SDS_P1;SDS_P2;PMS_P1;PMS_P2;Temp;Humidity;BMP_temperature;BMP_pressure;BME280_temperature;BME280_humidity;BME280_pressure;Samples;Min_cycle;Max_cycle;Signal;HPM_P1;HPM_P2
2021/12/21 00:00:58;;;;;;;14.70;8.02;;;1.50;99.90;;;;;;4977613;28;20300;-80
2021/12/21 00:03:27;;;;;;;13.52;7.88;;;1.40;99.90;;;;;;4978065;28;20300;-80
2021/12/21 00:05:54;;;;;;;14.85;7.25;;;1.50;99.90;;;;;;4979031;28;20209;-81
2021/12/21 00:08:21;;;;;;;12.98;6.45;;;1.50;99.90;;;;;;4977488;28;20236;-81
2021/12/21 00:10:48;;;;;;;13.68;7.63;;;1.50;99.90;;;;;;4977266;28;20222;-81
2021/12/21 00:13:36;;;;;;;17.50;6.63;;;1.40;99.90;;;;;;4977699;28;20212;-81
2021/12/21 00:16:12;;;;;;;13.40;6.43;;;1.30;99.90;;;;;;4978188;28;20745;-81
2021/12/21 00:18:45;;;;;;;23.13;8.32;;;1.30;99.90;;;;;;4977484;28;20232;-79
2021/12/21 00:21:23;;;;;;;23.63;7.63;;;1.30;99.90;;;;;;4978252;28;20268;-80
2021/12/21 00:23:52;;;;;;;18.00;6.90;;;1.30;99.90;;;;;;4977572;28;20634;-80
2021/12/21 00:26:21;;;;;;;11.90;7.38;;;1.40;99.90;;;;;;4977843;28;20218;-80
2021/12/21 00:28:55;;;;;;;14.45;6.45;;;1.40;99.90;;;;;;4977399;28;20233;-80
2021/12/21 00:31:23;;;;;;;15.73;8.10;;;1.40;99.90;;;;;;4977598;28;20193;-80
2021/12/21 00:33:52;;;;;;;13.13;7.00;;;1.30;99.90;;;;;;4978131;28;20684;-80
2021/12/21 00:36:21;;;;;;;13.50;6.47;;;1.30;99.90;;;;;;4977361;28;20212;-80
2021/12/21 00:38:49;;;;;;;11.70;5.93;;;1.20;99.90;;;;;;4978965;28;20311;-80
2021/12/21 00:41:17;;;;;;;12.02;6.43;;;1.50;99.90;;;;;;4988312;28;20284;-79
2021/12/21 00:43:44;;;;;;;11.90;7.00;;;1.20;99.90;;;;;;4987547;28;20308;-80
2021/12/21 00:46:11;;;;;;;14.20;6.60;;;1.40;99.90;;;;;;4988970;28;20209;-79
2021/12/21 00:48:47;;;;;;;15.70;7.72;;;1.10;99.90;;;;;;4990305;28;20231;-80
2021/12/21 00:51:16;;;;;;;11.02;6.15;;;1.20;99.90;;;;;;4985127;28;20259;-80
2021/12/21 00:53:43;;;;;;;14.93;6.65;;;1.30;99.90;;;;;;4976943;28;20223;-80
2021/12/21 00:56:10;;;;;;;14.43;7.95;;;1.10;99.90;;;;;;4976979;28;20576;-80
2021/12/21 00:58:37;;;;;;;13.43;7.07;;;1.30;99.90;;;;;;4976714;28;20228;-80
2021/12/21 01:01:06;;;;;;;13.25;7.22;;;1.30;99.90;;;;;;4977359;28;20208;-80
2021/12/21 01:03:34;;;;;;;12.48;7.93;;;1.40;99.90;;;;;;4979134;28;20215;-80
2021/12/21 01:06:09;;;;;;;15.57;7.30;;;1.40;99.90;;;;;;4976913;28;20211;-80
2021/12/21 01:08:47;;;;;;;16.48;6.80;;;1.10;99.90;;;;;;4977207;28;20271;-80
2021/12/21 01:11:17;;;;;;;15.77;5.88;;;1.20;99.90;;;;;;4977351;28;20288;-79
2021/12/21 01:13:58;;;;;;;14.85;7.20;;;1.10;99.90;;;;;;4977006;28;20554;-81
2021/12/21 01:16:34;;;;;;;15.48;6.28;;;1.20;99.90;;;;;;4976685;28;20189;-81
2021/12/21 01:19:12;;;;;;;12.00;5.10;;;1.20;99.90;;;;;;4976626;28;20244;-80
2021/12/21 01:21:48;;;;;;;10.20;5.35;;;1.10;99.90;;;;;;4976384;28;20240;-80
2021/12/21 01:24:41;;;;;;;9.35;5.38;;;1.10;99.90;;;;;;4978786;28;20573;-80
2021/12/21 01:27:21;;;;;;;11.75;6.30;;;1.00;99.90;;;;;;4977268;28;20650;-80
2021/12/21 01:29:58;;;;;;;9.43;5.65;;;1.00;99.90;;;;;;4977690;28;20236;-80
2021/12/21 01:32:38;;;;;;;10.27;5.00;;;0.90;99.90;;;;;;4977119;28;20193;-80
2021/12/21 01:35:12;;;;;;;17.17;6.85;;;1.00;99.90;;;;;;4977574;28;20660;-80
2021/12/21 01:37:49;;;;;;;12.18;4.80;;;0.90;99.90;;;;;;4977684;28;20594;-81
2021/12/21 01:40:30;;;;;;;8.70;5.47;;;0.80;99.90;;;;;;4977602;28;20212;-81
2021/12/21 01:51:14;;;;;;;16.88;6.53;;;0.70;99.90;;;;;;4976559;28;20325;-80
2021/12/21 01:53:42;;;;;;;11.40;4.72;;;0.70;99.90;;;;;;4975958;28;20246;-79
2021/12/21 01:56:11;;;;;;;14.82;6.50;;;0.80;99.90;;;;;;4978978;28;20292;-79
2021/12/21 01:58:39;;;;;;;12.88;4.85;;;1.00;99.90;;;;;;4978807;28;20366;-78
2021/12/21 02:01:07;;;;;;;14.98;5.55;;;0.70;99.90;;;;;;4980707;28;20573;-79
2021/12/21 02:03:35;;;;;;;11.98;6.53;;;0.90;99.90;;;;;;4980587;28;20220;-80
2021/12/21 02:06:01;;;;;;;11.50;6.68;;;1.00;99.90;;;;;;4984743;28;20288;-79
2021/12/21 02:08:28;;;;;;;14.15;5.70;;;0.90;99.90;;;;;;4983027;28;20316;-79
2021/12/21 02:10:59;;;;;;;17.40;5.90;;;1.00;99.90;;;;;;4980309;28;20215;-80
2021/12/21 02:13:32;;;;;;;13.77;5.72;;;0.70;99.90;;;;;;4980597;28;20205;-80
2021/12/21 02:15:58;;;;;;;11.50;5.47;;;0.80;99.90;;;;;;4982087;28;20276;-80
2021/12/21 02:18:39;;;;;;;13.10;5.32;;;0.90;99.90;;;;;;4993443;28;20604;-79
2021/12/21 02:21:19;;;;;;;10.60;4.90;;;0.80;99.90;;;;;;4982527;28;20289;-80
2021/12/21 02:23:48;;;;;;;14.85;5.90;;;0.80;99.90;;;;;;4981929;28;20613;-81
2021/12/21 02:26:39;;;;;;;12.93;6.00;;;0.90;99.90;;;;;;4985285;28;20675;-80
2021/12/21 02:29:16;;;;;;;14.93;5.32;;;0.80;99.90;;;;;;4994916;28;20242;-80
2021/12/21 02:31:44;;;;;;;12.00;5.50;;;0.70;99.90;;;;;;4995622;28;20196;-80
2021/12/21 02:34:11;;;;;;;8.77;4.95;;;0.70;99.90;;;;;;4994997;28;20299;-80
2021/12/21 02:36:45;;;;;;;10.00;5.10;;;0.80;99.90;;;;;;4994782;28;20227;-80
2021/12/21 02:39:14;;;;;;;17.13;6.25;;;0.70;99.90;;;;;;4988209;28;20288;-80
2021/12/21 02:41:41;;;;;;;9.52;4.97;;;0.70;99.90;;;;;;4981163;28;20658;-79
2021/12/21 02:44:08;;;;;;;14.70;6.88;;;0.90;99.90;;;;;;4984965;28;20272;-78
2021/12/21 02:46:38;;;;;;;13.50;4.72;;;0.90;99.90;;;;;;4988523;28;20205;-79
2021/12/21 02:49:05;;;;;;;10.90;4.55;;;0.80;99.90;;;;;;4981648;28;20289;-80
2021/12/21 02:51:32;;;;;;;12.77;5.40;;;0.80;99.90;;;;;;4979731;28;20205;-80
2021/12/21 02:54:00;;;;;;;10.43;4.70;;;0.90;99.90;;;;;;4978792;28;20302;-80
2021/12/21 02:56:27;;;;;;;12.98;4.72;;;0.80;99.90;;;;;;4979092;28;20277;-80
2021/12/21 02:58:54;;;;;;;8.63;4.80;;;0.60;99.90;;;;;;4979396;28;20242;-80
2021/12/21 03:01:21;;;;;;;10.00;4.70;;;0.50;99.90;;;;;;4980665;28;20214;-80
2021/12/21 03:03:48;;;;;;;15.52;5.85;;;0.50;99.90;;;;;;4980082;28;20666;-80
2021/12/21 03:06:40;;;;;;;12.30;6.03;;;0.50;99.90;;;;;;4979483;28;20207;-81
2021/12/21 03:09:14;;;;;;;13.52;5.20;;;0.60;99.90;;;;;;4978997;28;20238;-81
2021/12/21 03:11:55;;;;;;;11.43;4.88;;;0.50;99.90;;;;;;4979532;28;20189;-81
2021/12/21 03:14:22;;;;;;;8.85;5.10;;;0.50;99.90;;;;;;4979848;28;20197;-81
2021/12/21 03:16:49;;;;;;;8.80;4.90;;;0.50;99.90;;;;;;4988983;28;20291;-81
2021/12/21 03:19:16;;;;;;;10.75;4.80;;;0.50;99.90;;;;;;4986317;28;20295;-80
2021/12/21 03:21:43;;;;;;;8.75;4.63;;;0.30;99.90;;;;;;4993256;28;20212;-80
2021/12/21 03:24:11;;;;;;;8.48;4.40;;;0.30;99.90;;;;;;4987481;28;20286;-80
2021/12/21 03:26:39;;;;;;;14.15;5.00;;;0.40;99.90;;;;;;4979367;28;20228;-81
2021/12/21 03:29:06;;;;;;;7.90;4.65;;;0.60;99.90;;;;;;4980098;28;20227;-81
2021/12/21 03:31:34;;;;;;;10.90;5.10;;;0.40;99.90;;;;;;4979511;28;20208;-80
2021/12/21 03:34:01;;;;;;;11.30;4.78;;;0.50;99.90;;;;;;4979532;28;20243;-81
2021/12/21 03:36:28;;;;;;;8.85;4.45;;;0.60;99.90;;;;;;4980000;28;20235;-81
2021/12/21 03:39:00;;;;;;;10.25;5.28;;;0.50;99.90;;;;;;4979252;28;20299;-81
2021/12/21 03:41:28;;;;;;;10.02;4.40;;;0.40;99.90;;;;;;4982115;28;20198;-79
2021/12/21 03:43:59;;;;;;;9.98;4.85;;;0.20;99.90;;;;;;4981000;28;20218;-79
2021/12/21 03:46:26;;;;;;;8.25;4.90;;;0.30;99.90;;;;;;4979152;28;20223;-80
2021/12/21 03:48:53;;;;;;;12.52;4.65;;;0.20;99.90;;;;;;4978904;28;20613;-80
2021/12/21 03:51:21;;;;;;;8.15;4.90;;;0.30;99.90;;;;;;4979023;28;20207;-80
2021/12/21 03:53:49;;;;;;;11.98;5.60;;;0.30;99.90;;;;;;4979579;28;20218;-80
2021/12/21 03:56:36;;;;;;;11.43;5.50;;;0.30;99.90;;;;;;4979033;28;20229;-80
2021/12/21 03:59:04;;;;;;;11.30;5.82;;;0.30;99.90;;;;;;4980190;28;20236;-80
2021/12/21 04:01:31;;;;;;;10.40;5.07;;;0.30;99.90;;;;;;4978945;28;20209;-80
2021/12/21 04:03:58;;;;;;;11.52;5.65;;;0.50;99.90;;;;;;4979153;28;20589;-80
2021/12/21 04:06:25;;;;;;;12.57;4.90;;;0.20;99.90;;;;;;4978968;28;20293;-80
2021/12/21 04:08:52;;;;;;;9.65;5.40;;;0.10;99.90;;;;;;4978176;28;20242;-80
2021/12/21 04:11:19;;;;;;;9.60;5.07;;;0.30;99.90;;;;;;4978738;28;20208;-80
2021/12/21 04:13:45;;;;;;;8.50;5.18;;;0.10;99.90;;;;;;4978841;28;20211;-80
2021/12/21 04:16:14;;;;;;;9.75;4.80;;;0.50;99.90;;;;;;4979627;28;20271;-80
2021/12/21 04:18:41;;;;;;;10.95;5.05;;;0.20;99.90;;;;;;4978954;28;20654;-80
2021/12/21 04:21:11;;;;;;;12.18;5.65;;;0.10;99.90;;;;;;4978098;28;20299;-79
2021/12/21 04:23:39;;;;;;;9.50;4.82;;;0.20;99.90;;;;;;4978115;28;20291;-81
2021/12/21 04:26:05;;;;;;;12.38;5.50;;;0.00;99.90;;;;;;4978598;28;20270;-80
2021/12/21 04:28:32;;;;;;;7.60;5.03;;;-0.10;99.90;;;;;;4979096;28;20256;-80
2021/12/21 04:30:59;;;;;;;11.07;4.78;;;0.20;99.90;;;;;;4984941;28;20205;-79
2021/12/21 04:33:27;;;;;;;8.88;5.00;;;0.30;99.90;;;;;;4994309;28;20220;-80
2021/12/21 04:35:54;;;;;;;10.32;5.03;;;0.20;99.90;;;;;;4979642;28;20302;-80
2021/12/21 04:38:22;;;;;;;15.93;5.28;;;0.10;99.90;;;;;;4980681;28;20259;-80
2021/12/21 04:40:54;;;;;;;11.00;4.68;;;0.00;99.90;;;;;;4993211;28;20209;-80
2021/12/21 04:43:21;;;;;;;10.77;5.05;;;0.00;99.90;;;;;;4987943;28;20212;-80
2021/12/21 04:45:47;;;;;;;9.60;4.88;;;-0.10;99.90;;;;;;4993903;28;20207;-81
2021/12/21 04:48:14;;;;;;;7.28;4.43;;;0.00;99.90;;;;;;4981808;28;20243;-81
2021/12/21 04:50:44;;;;;;;10.27;4.32;;;-0.10;99.90;;;;;;4978507;28;20211;-81
2021/12/21 04:53:11;;;;;;;11.15;4.55;;;0.00;99.90;;;;;;4979387;28;20259;-79
2021/12/21 04:55:38;;;;;;;14.88;5.22;;;-0.10;99.90;;;;;;4979867;28;20234;-80
2021/12/21 04:58:05;;;;;;;10.50;4.80;;;-0.10;99.90;;;;;;4979389;28;20231;-80
2021/12/21 05:00:33;;;;;;;8.90;4.03;;;0.00;99.90;;;;;;4978699;28;20209;-80
2021/12/21 05:03:00;;;;;;;12.68;4.93;;;0.10;99.90;;;;;;4991876;28;20208;-80
2021/12/21 05:05:27;;;;;;;12.90;4.88;;;0.00;99.90;;;;;;4993732;28;20221;-80
2021/12/21 05:22:52;;;;;;;;;;;;;;;;;;;;;
2021/12/21 05:26:06;;;;;;;;;;;;;;;;;;;;;
2021/12/21 05:33:04;;;;;;;8.57;5.00;;;0.00;99.90;;;;;;5010716;28;20215;-88
2021/12/21 06:32:56;;;;;;;8.07;5.25;;;-0.50;99.90;;;;;;4928979;29;20234;-88
2021/12/21 06:35:49;;;;;;;12.40;6.30;;;-0.30;99.90;;;;;;4973851;28;20188;-88
2021/12/21 06:38:53;;;;;;;14.65;6.25;;;-0.30;99.90;;;;;;5022441;28;20233;-89
2021/12/21 06:42:12;;;;;;;7.65;4.78;;;-0.40;99.90;;;;;;5022183;28;20312;-90
2021/12/21 06:53:42;;;;;;;11.65;5.00;;;-0.40;99.90;;;;;;5038092;28;20177;-88
2021/12/21 07:22:09;;;;;;;11.05;5.40;;;-0.30;99.90;;;;;;4961927;29;20210;-88
2021/12/21 07:24:44;;;;;;;8.75;5.57;;;-0.40;99.90;;;;;;4958721;28;20234;-89
2021/12/21 07:33:43;;;;;;;11.23;5.55;;;-0.50;99.90;;;;;;5023513;28;20204;-89
2021/12/21 07:36:43;;;;;;;21.48;5.70;;;-0.50;99.90;;;;;;5022355;28;20577;-89
2021/12/21 07:52:41;;;;;;;11.38;5.50;;;-0.50;99.90;;;;;;5022117;28;20217;-90
2021/12/21 07:55:45;;;;;;;9.40;5.72;;;-0.60;99.90;;;;;;4999473;28;20224;-88
2021/12/21 08:28:28;;;;;;;15.45;6.13;;;-0.20;99.90;;;;;;4932932;29;20228;-88
2021/12/21 08:31:10;;;;;;;11.50;5.65;;;-0.50;99.90;;;;;;4986859;28;20258;-88
2021/12/21 08:33:37;;;;;;;13.63;6.95;;;-0.30;99.90;;;;;;4985366;28;20209;-88
2021/12/21 08:40:12;;;;;;;14.30;6.25;;;-0.30;99.90;;;;;;4956080;28;20235;-89
2021/12/21 09:17:24;;;;;;;22.92;7.97;;;0.70;99.90;;;;;;4878339;29;20239;-87
2021/12/21 09:19:56;;;;;;;10.43;7.63;;;0.50;99.90;;;;;;4976850;28;20237;-85
2021/12/21 09:36:09;;;;;;;17.08;8.55;;;1.00;99.90;;;;;;4962777;28;20240;-88
2021/12/21 09:39:02;;;;;;;17.90;8.25;;;1.00;99.90;;;;;;5025847;28;20216;-86
2021/12/21 09:44:35;;;;;;;14.63;7.45;;;1.20;99.90;;;;;;5028633;28;20219;-88
2021/12/21 09:47:11;;;;;;;15.85;8.05;;;1.20;99.90;;;;;;5025024;28;20322;-89
2021/12/21 09:49:47;;;;;;;15.00;9.00;;;1.20;99.90;;;;;;5020168;28;20231;-88
2021/12/21 09:52:38;;;;;;;17.45;8.75;;;0.90;99.90;;;;;;5020047;28;20199;-89
2021/12/21 09:55:29;;;;;;;14.82;8.35;;;1.50;99.90;;;;;;5022240;28;20226;-89
2021/12/21 10:21:39;;;;;;;12.43;7.55;;;2.00;99.90;;;;;;4964558;28;20223;-88
2021/12/21 10:31:20;;;;;;;18.70;8.48;;;2.10;99.90;;;;;;5005956;28;20215;-89
2021/12/21 10:34:32;;;;;;;;;;;;;;;;;;;;;
2021/12/21 10:41:13;;;;;;;;;;;;;;;;;;;;;
2021/12/21 10:54:26;;;;;;;31.52;8.88;;;2.30;99.90;;;;;;4924023;29;20246;-88
2021/12/21 11:09:58;;;;;;;20.02;9.80;;;2.60;99.90;;;;;;5114308;23;20249;-79
2021/12/21 11:12:29;;;;;;;13.25;8.48;;;2.70;99.90;;;;;;5026919;28;20214;-80
2021/12/21 11:15:00;;;;;;;16.77;7.88;;;2.60;99.90;;;;;;5020000;28;20258;-81
2021/12/21 11:17:27;;;;;;;12.75;8.07;;;2.80;99.90;;;;;;5019209;28;20208;-79
2021/12/21 11:19:54;;;;;;;13.57;7.65;;;2.80;99.90;;;;;;5019694;28;20239;-80
2021/12/21 11:22:22;;;;;;;12.00;6.35;;;2.80;99.90;;;;;;5019387;28;20218;-81
2021/12/21 11:24:49;;;;;;;11.68;7.45;;;2.80;99.90;;;;;;5020179;28;20538;-81
2021/12/21 11:27:18;;;;;;;10.10;7.15;;;2.90;99.90;;;;;;5019615;28;20283;-79
2021/12/21 11:29:47;;;;;;;11.75;7.78;;;3.10;99.90;;;;;;5021690;28;20237;-79
2021/12/21 11:32:15;;;;;;;15.55;6.90;;;3.20;99.90;;;;;;5023108;28;20245;-80
2021/12/21 11:35:08;;;;;;;13.70;6.70;;;3.30;99.90;;;;;;5024899;28;20211;-80
2021/12/21 11:37:32;;;;;;;8.63;6.47;;;3.10;99.90;;;;;;5023647;28;20223;-80
2021/12/21 11:39:58;;;;;;;10.10;6.18;;;3.10;99.90;;;;;;5020715;28;20318;-80
2021/12/21 11:42:34;;;;;;;10.95;6.50;;;3.50;99.90;;;;;;5022003;28;20320;-80
2021/12/21 11:45:11;;;;;;;11.25;6.57;;;3.50;99.90;;;;;;5021500;28;20218;-80
2021/12/21 11:47:42;;;;;;;12.05;5.63;;;3.40;99.90;;;;;;5019284;28;20195;-80
2021/12/21 11:50:10;;;;;;;14.27;7.07;;;3.20;99.90;;;;;;5018420;28;20306;-80
2021/12/21 11:52:46;;;;;;;10.77;6.28;;;3.50;99.90;;;;;;5019143;28;20212;-80
2021/12/21 11:55:15;;;;;;;9.48;6.00;;;3.30;99.90;;;;;;5017543;28;20294;-80
2021/12/21 11:57:45;;;;;;;9.60;6.10;;;3.10;99.90;;;;;;5018404;28;20267;-80
2021/12/21 12:00:16;;;;;;;14.20;7.50;;;3.20;99.90;;;;;;5019316;28;20287;-80
2021/12/21 12:02:44;;;;;;;10.23;6.65;;;3.60;99.90;;;;;;5018635;28;20530;-80
2021/12/21 12:05:20;;;;;;;10.40;6.50;;;3.50;99.90;;;;;;5017969;28;20342;-80
2021/12/21 12:08:00;;;;;;;12.85;6.15;;;3.60;99.90;;;;;;5019001;28;20214;-80
2021/12/21 12:10:27;;;;;;;13.93;6.40;;;3.60;99.90;;;;;;5019978;28;20231;-81
2021/12/21 12:12:54;;;;;;;12.00;6.03;;;3.60;99.90;;;;;;5018965;28;20203;-79
2021/12/21 12:15:22;;;;;;;9.82;6.35;;;3.50;99.90;;;;;;5021129;28;20203;-78
2021/12/21 12:17:51;;;;;;;9.98;5.15;;;3.40;99.90;;;;;;5026727;28;20263;-80
2021/12/21 12:20:26;;;;;;;10.93;5.97;;;3.60;99.90;;;;;;5021589;28;20628;-81
2021/12/21 12:23:04;;;;;;;11.65;6.25;;;3.70;99.90;;;;;;5020020;28;20255;-81
2021/12/21 12:25:31;;;;;;;13.73;6.75;;;3.70;99.90;;;;;;5019056;28;20210;-81
2021/12/21 12:27:57;;;;;;;10.27;5.30;;;3.60;99.90;;;;;;5020453;28;20272;-81
2021/12/21 12:30:27;;;;;;;7.68;5.45;;;3.60;99.90;;;;;;5018733;28;20266;-81
2021/12/21 12:32:59;;;;;;;7.45;4.85;;;3.70;99.90;;;;;;5030474;28;20219;-80
2021/12/21 12:35:29;;;;;;;13.95;5.25;;;3.90;99.90;;;;;;5019087;28;20234;-80
2021/12/21 12:37:58;;;;;;;12.00;5.82;;;3.70;99.90;;;;;;5017792;28;20259;-81
2021/12/21 12:40:28;;;;;;;9.32;5.30;;;3.70;99.90;;;;;;5018541;28;20228;-80
2021/12/21 12:42:58;;;;;;;9.80;6.22;;;3.80;99.90;;;;;;5017450;28;20188;-80
2021/12/21 12:45:35;;;;;;;8.07;4.70;;;3.70;99.90;;;;;;5019055;28;20208;-81
2021/12/21 12:48:04;;;;;;;8.73;5.18;;;3.90;99.90;;;;;;5019385;28;20219;-81
2021/12/21 12:50:39;;;;;;;10.07;4.43;;;3.80;99.90;;;;;;5018025;28;20797;-81
2021/12/21 12:53:08;;;;;;;8.82;5.13;;;3.90;99.90;;;;;;5018837;28;20191;-80
2021/12/21 12:55:39;;;;;;;9.60;5.20;;;3.80;99.90;;;;;;5021119;28;20630;-80
2021/12/21 12:58:12;;;;;;;10.70;4.80;;;4.00;99.90;;;;;;5021300;28;20211;-80
2021/12/21 13:00:42;;;;;;;10.38;6.03;;;4.20;99.90;;;;;;5021348;28;20609;-79
2021/12/21 13:03:11;;;;;;;9.70;5.60;;;4.00;99.90;;;;;;5020657;28;20192;-80
2021/12/21 13:05:41;;;;;;;10.85;6.97;;;3.90;99.90;;;;;;5022165;28;20234;-81
2021/12/21 13:08:11;;;;;;;7.32;5.03;;;3.80;99.90;;;;;;5021185;28;20194;-82
2021/12/21 13:10:40;;;;;;;9.88;4.68;;;3.80;99.90;;;;;;5021587;28;20249;-79
2021/12/21 13:13:07;;;;;;;8.65;5.10;;;3.90;99.90;;;;;;5021911;28;20374;-79
2021/12/21 13:15:36;;;;;;;10.85;5.80;;;3.80;99.90;;;;;;5020567;28;20291;-81
2021/12/21 13:18:05;;;;;;;8.70;5.18;;;3.90;99.90;;;;;;5020954;28;20227;-81
2021/12/21 13:20:33;;;;;;;8.68;4.38;;;4.00;99.90;;;;;;5022839;28;20666;-80
2021/12/21 13:23:13;;;;;;;10.73;5.07;;;4.10;99.90;;;;;;5022440;28;20302;-82
2021/12/21 13:25:41;;;;;;;11.35;4.93;;;4.10;99.90;;;;;;5022753;28;20264;-80
2021/12/21 13:28:10;;;;;;;8.15;4.78;;;4.10;99.90;;;;;;5020554;28;20208;-81
2021/12/21 13:30:37;;;;;;;8.88;4.65;;;4.30;99.90;;;;;;5021799;28;20203;-80
2021/12/21 13:33:10;;;;;;;15.82;5.10;;;4.30;99.90;;;;;;5020827;28;20234;-80
2021/12/21 13:35:43;;;;;;;5.75;3.17;;;4.30;99.90;;;;;;5019595;28;20200;-81
2021/12/21 13:38:14;;;;;;;9.35;4.90;;;4.30;99.90;;;;;;5019153;28;20211;-80
2021/12/21 13:40:41;;;;;;;8.32;4.60;;;4.10;99.90;;;;;;5018576;28;20223;-80
2021/12/21 13:43:12;;;;;;;8.10;3.90;;;4.10;99.90;;;;;;5017948;28;20212;-80
2021/12/21 13:45:39;;;;;;;9.45;4.60;;;4.00;99.90;;;;;;5023707;28;20227;-79
2021/12/21 13:48:16;;;;;;;9.02;4.35;;;4.30;99.90;;;;;;5025895;28;20204;-80
2021/12/21 13:50:43;;;;;;;9.27;5.20;;;4.50;99.90;;;;;;5026072;28;20199;-79
2021/12/21 13:53:10;;;;;;;11.95;5.10;;;4.50;99.90;;;;;;5026427;28;20326;-81
2021/12/21 13:55:38;;;;;;;8.98;5.60;;;4.30;99.90;;;;;;5025003;28;20217;-81
2021/12/21 13:58:07;;;;;;;10.75;4.93;;;4.10;99.90;;;;;;5025138;28;20227;-80
2021/12/21 14:00:37;;;;;;;8.95;5.88;;;4.30;99.90;;;;;;5024450;28;20214;-80
2021/12/21 14:03:14;;;;;;;8.50;5.60;;;4.10;99.90;;;;;;5025194;28;20283;-79
2021/12/21 14:05:45;;;;;;;8.77;5.10;;;4.30;99.90;;;;;;5024455;28;20262;-79
2021/12/21 14:08:13;;;;;;;9.90;5.15;;;4.40;99.90;;;;;;5026874;28;20269;-79
2021/12/21 14:10:42;;;;;;;11.32;5.45;;;4.40;99.90;;;;;;5027042;28;20196;-80
2021/12/21 14:13:11;;;;;;;7.45;4.50;;;4.20;99.90;;;;;;5023546;28;20219;-80
2021/12/21 14:15:39;;;;;;;16.52;5.57;;;4.10;99.90;;;;;;5026268;28;20215;-81
2021/12/21 14:18:20;;;;;;;8.23;5.38;;;4.30;99.90;;;;;;5024168;28;20298;-81
2021/12/21 14:20:50;;;;;;;10.20;5.47;;;4.50;99.90;;;;;;5024566;28;20367;-79
2021/12/21 14:23:18;;;;;;;10.63;5.40;;;4.50;99.90;;;;;;5023940;28;20620;-80
2021/12/21 14:25:45;;;;;;;11.65;5.70;;;4.40;99.90;;;;;;5028644;28;20211;-79
2021/12/21 14:28:14;;;;;;;9.65;4.65;;;4.50;99.90;;;;;;5028836;28;20279;-80
2021/12/21 14:30:41;;;;;;;7.65;4.35;;;4.40;99.90;;;;;;5026532;28;20283;-80
2021/12/21 14:33:21;;;;;;;7.68;5.15;;;4.60;99.90;;;;;;5021789;28;20214;-80
2021/12/21 14:35:51;;;;;;;11.32;5.65;;;4.40;99.90;;;;;;5020726;28;20192;-81
2021/12/21 14:38:18;;;;;;;9.15;4.50;;;4.30;99.90;;;;;;5027954;28;20223;-80
2021/12/21 14:40:48;;;;;;;8.50;5.07;;;4.50;99.90;;;;;;5028299;28;20227;-79
2021/12/21 14:43:28;;;;;;;9.73;5.15;;;4.30;99.90;;;;;;5031133;28;20263;-80
2021/12/21 14:45:56;;;;;;;9.18;4.43;;;4.70;99.90;;;;;;5028871;28;20222;-80
2021/12/21 14:48:25;;;;;;;14.27;5.72;;;4.50;99.90;;;;;;5031558;28;20599;-79
2021/12/21 14:51:04;;;;;;;6.40;4.38;;;4.10;99.90;;;;;;5020119;28;20298;-81
2021/12/21 14:53:42;;;;;;;8.55;4.93;;;4.30;99.90;;;;;;5021001;28;20291;-80
2021/12/21 14:56:12;;;;;;;8.95;4.38;;;4.30;99.90;;;;;;5022549;28;20206;-80
2021/12/21 14:58:39;;;;;;;6.00;4.00;;;4.40;99.90;;;;;;5029548;28;20239;-79
2021/12/21 15:01:06;;;;;;;7.53;4.82;;;4.20;99.90;;;;;;5022599;28;20199;-80
2021/12/21 15:03:40;;;;;;;11.52;4.63;;;4.20;99.90;;;;;;5022421;28;20655;-80
2021/12/21 15:06:09;;;;;;;9.07;5.10;;;4.10;99.90;;;;;;5019481;28;20199;-79
2021/12/21 15:08:36;;;;;;;14.15;4.90;;;4.00;99.90;;;;;;5019521;28;20282;-80
2021/12/21 15:11:03;;;;;;;7.55;5.03;;;4.20;99.90;;;;;;5019663;28;20294;-81
2021/12/21 15:13:30;;;;;;;9.27;5.72;;;3.90;99.90;;;;;;5020083;28;20218;-78
2021/12/21 15:16:00;;;;;;;8.30;5.10;;;4.00;99.90;;;;;;5019292;28;20218;-80
2021/12/21 15:18:27;;;;;;;7.72;4.45;;;4.10;99.90;;;;;;5018766;28;20676;-79
2021/12/21 15:20:54;;;;;;;7.75;4.82;;;4.20;99.90;;;;;;5019046;28;20226;-80
2021/12/21 15:23:22;;;;;;;12.77;5.85;;;4.10;99.90;;;;;;5019676;28;20697;-81
2021/12/21 15:25:49;;;;;;;8.15;4.43;;;3.90;99.90;;;;;;5020743;28;20303;-80
2021/12/21 15:28:16;;;;;;;5.65;3.80;;;4.10;99.90;;;;;;5020117;28;20199;-81
2021/12/21 15:30:42;;;;;;;9.40;4.70;;;4.10;99.90;;;;;;5021652;28;20242;-80
2021/12/21 15:33:10;;;;;;;8.00;5.65;;;4.10;99.90;;;;;;5020716;28;20294;-79
2021/12/21 15:35:37;;;;;;;12.57;7.72;;;3.80;99.90;;;;;;5019708;28;20248;-79
2021/12/21 15:38:05;;;;;;;12.95;7.47;;;3.80;99.90;;;;;;5018965;28;20223;-79
2021/12/21 15:40:33;;;;;;;10.80;6.00;;;3.70;99.90;;;;;;5019833;28;20608;-80
2021/12/21 15:43:07;;;;;;;16.52;7.78;;;3.60;99.90;;;;;;5020353;28;20204;-79
2021/12/21 15:45:34;;;;;;;11.98;6.50;;;3.40;99.90;;;;;;5029772;28;20314;-79
2021/12/21 15:48:01;;;;;;;11.45;6.72;;;3.40;99.90;;;;;;5031081;28;20279;-80
2021/12/21 15:50:28;;;;;;;16.27;6.55;;;3.60;99.90;;;;;;5033479;28;20262;-80
2021/12/21 15:52:55;;;;;;;20.95;8.82;;;3.50;99.90;;;;;;5026828;28;20218;-79
2021/12/21 15:55:22;;;;;;;12.52;6.88;;;3.40;99.90;;;;;;5025123;28;20682;-80
2021/12/21 15:57:50;;;;;;;12.82;7.65;;;3.40;99.90;;;;;;5022543;28;20217;-80
2021/12/21 16:00:20;;;;;;;18.10;6.65;;;3.40;99.90;;;;;;5020645;28;20227;-81
2021/12/21 16:02:47;;;;;;;12.68;7.00;;;3.20;99.90;;;;;;5021598;28;20290;-80
2021/12/21 16:05:14;;;;;;;10.95;7.53;;;3.30;99.90;;;;;;5022708;28;20207;-78
2021/12/21 16:07:42;;;;;;;12.43;7.28;;;3.30;99.90;;;;;;5018202;28;20211;-79
2021/12/21 16:10:11;;;;;;;12.30;6.47;;;3.30;99.90;;;;;;5020533;28;20300;-80
2021/12/21 16:12:38;;;;;;;16.20;7.50;;;3.10;99.90;;;;;;5022643;28;20210;-79
2021/12/21 16:15:07;;;;;;;11.60;7.25;;;3.20;99.90;;;;;;5020419;28;20528;-80
2021/12/21 16:17:36;;;;;;;17.15;6.90;;;3.10;99.90;;;;;;5019340;28;20290;-81
2021/12/21 16:20:05;;;;;;;11.93;6.03;;;3.20;99.90;;;;;;5019944;28;20246;-79
2021/12/21 16:22:32;;;;;;;11.77;6.05;;;3.00;99.90;;;;;;5021725;28;20208;-80
2021/12/21 16:24:59;;;;;;;9.52;6.75;;;2.90;99.90;;;;;;5021670;28;20239;-79
2021/12/21 16:27:25;;;;;;;9.38;6.38;;;2.90;99.90;;;;;;5020798;28;20208;-79
2021/12/21 16:29:52;;;;;;;11.30;5.63;;;2.90;99.90;;;;;;5021058;28;20255;-80
2021/12/21 16:32:21;;;;;;;12.00;6.65;;;2.70;99.90;;;;;;5021175;28;20744;-80
2021/12/21 16:34:48;;;;;;;10.52;6.75;;;2.70;99.90;;;;;;5020431;28;20211;-81
2021/12/21 16:37:14;;;;;;;7.65;5.35;;;2.70;99.90;;;;;;5023210;28;20301;-81
2021/12/21 16:39:41;;;;;;;9.50;6.43;;;2.70;99.90;;;;;;5024736;28;20239;-79
2021/12/21 16:42:10;;;;;;;10.52;6.00;;;2.50;99.90;;;;;;5025860;28;20215;-79
2021/12/21 16:44:37;;;;;;;9.90;6.28;;;2.70;99.90;;;;;;5020964;28;20207;-80
2021/12/21 16:47:06;;;;;;;14.82;6.95;;;2.70;99.90;;;;;;5028092;28;20219;-80
2021/12/21 16:49:34;;;;;;;12.45;7.05;;;2.80;99.90;;;;;;5026799;28;20278;-80
2021/12/21 16:52:01;;;;;;;10.73;6.57;;;2.60;99.90;;;;;;5028270;28;20219;-80
2021/12/21 16:54:28;;;;;;;11.98;7.05;;;2.70;99.90;;;;;;5024409;28;20246;-80
2021/12/21 16:56:55;;;;;;;17.10;7.15;;;2.60;99.90;;;;;;5020644;28;20643;-81
2021/12/21 16:59:22;;;;;;;13.02;7.80;;;2.70;99.90;;;;;;5019266;28;20231;-81
2021/12/21 17:01:49;;;;;;;11.88;7.53;;;2.70;99.90;;;;;;5019218;28;20323;-80
2021/12/21 17:04:16;;;;;;;11.27;7.72;;;2.50;99.90;;;;;;5018626;28;20247;-81
2021/12/21 17:06:45;;;;;;;10.25;7.10;;;2.50;99.90;;;;;;5018807;28;20209;-81
2021/12/21 17:09:13;;;;;;;13.27;9.43;;;2.50;99.90;;;;;;5017875;28;20241;-80
2021/12/21 17:11:41;;;;;;;13.98;7.90;;;2.60;99.90;;;;;;5018623;28;20575;-80
2021/12/21 17:14:08;;;;;;;11.23;7.22;;;2.60;99.90;;;;;;5024535;28;20208;-79
2021/12/21 17:16:35;;;;;;;16.00;8.00;;;2.60;99.90;;;;;;5021016;28;20233;-80
2021/12/21 17:19:03;;;;;;;14.18;8.00;;;2.30;99.90;;;;;;5018543;28;20227;-80
2021/12/21 17:21:30;;;;;;;18.27;10.05;;;2.40;99.90;;;;;;5024524;28;20242;-80
2021/12/21 17:23:58;;;;;;;11.27;7.60;;;2.60;99.90;;;;;;5019061;28;20207;-80
2021/12/21 17:26:25;;;;;;;15.18;9.02;;;2.40;99.90;;;;;;5022251;28;20207;-80
2021/12/21 17:28:51;;;;;;;14.30;8.35;;;2.40;99.90;;;;;;5018173;28;20224;-80
2021/12/21 17:31:18;;;;;;;18.08;9.35;;;2.30;99.90;;;;;;5016711;28;20207;-81
2021/12/21 17:33:45;;;;;;;15.93;8.13;;;2.40;99.90;;;;;;5014777;28;20203;-79
2021/12/21 17:36:17;;;;;;;12.10;7.32;;;2.20;99.90;;;;;;5014120;28;20230;-80
2021/12/21 17:38:44;;;;;;;14.32;7.65;;;2.20;99.90;;;;;;5013727;28;20258;-80
2021/12/21 17:41:14;;;;;;;12.48;7.45;;;2.10;99.90;;;;;;5014530;28;20577;-80
2021/12/21 17:43:41;;;;;;;13.60;7.30;;;2.30;99.90;;;;;;5014716;28;20630;-80
2021/12/21 17:46:08;;;;;;;17.40;9.35;;;2.10;99.90;;;;;;5014484;28;20203;-80
2021/12/21 17:48:35;;;;;;;19.77;8.45;;;2.30;99.90;;;;;;5015154;28;20232;-80
2021/12/21 17:51:03;;;;;;;15.02;8.40;;;2.10;99.90;;;;;;5018169;28;20231;-80
2021/12/21 17:53:30;;;;;;;14.60;9.50;;;2.10;99.90;;;;;;5019745;28;20226;-80
2021/12/21 17:55:57;;;;;;;18.13;9.65;;;2.10;99.90;;;;;;5019424;28;20647;-80